createdAt,value
2023-01-18T00:04:41.588Z,22.58
2023-01-18T00:09:43.077Z,23.35
2023-01-18T00:14:44.529Z,21.38
2023-01-18T00:19:45.949Z,22.30
2023-01-18T00:24:47.417Z,21.95
2023-01-18T00:29:48.880Z,21.10
2023-01-18T00:34:50.665Z,22.10
2023-01-18T00:39:52.102Z,22.65
2023-01-18T00:44:53.606Z,22.90
2023-01-18T00:49:55.082Z,20.25
2023-01-18T00:54:56.569Z,22.13
2023-01-18T00:59:57.973Z,21.45
2023-01-18T01:05:18.441Z,22.92
2023-01-18T01:10:19.931Z,21.88
2023-01-18T01:15:39.578Z,21.70
2023-01-18T01:20:59.567Z,21.00
2023-01-18T01:26:13.736Z,20.67
2023-01-18T01:31:16.205Z,19.65
2023-01-18T01:36:20.575Z,18.95
2023-01-18T01:41:26.708Z,18.65
2023-01-18T01:46:48.090Z,18.38
2023-01-18T01:51:58.596Z,20.13
2023-01-18T01:57:06.109Z,18.60
2023-01-18T02:02:07.944Z,18.77
2023-01-18T02:07:10.795Z,18.75
2023-01-18T02:12:12.904Z,19.27
2023-01-18T02:17:40.511Z,19.50
2023-01-18T02:22:47.774Z,20.02
2023-01-18T02:28:03.924Z,20.02
2023-01-18T02:33:10.828Z,18.65
2023-01-18T02:38:28.021Z,20.33
2023-01-18T02:43:48.399Z,20.13
2023-01-18T02:48:50.717Z,20.33
2023-01-18T02:53:52.616Z,21.13
2023-01-18T02:59:14.099Z,20.77
2023-01-18T03:04:26.701Z,20.92
2023-01-18T03:09:28.576Z,21.10
2023-01-18T03:14:47.956Z,21.50
2023-01-18T03:20:09.207Z,20.08
2023-01-18T03:25:15.090Z,21.25
2023-01-18T03:30:35.187Z,21.55
2023-01-18T03:35:38.243Z,22.73
2023-01-18T03:40:39.770Z,22.52
2023-01-18T03:45:46.539Z,22.10
2023-01-18T03:51:00.844Z,23.25
2023-01-18T03:56:09.004Z,23.08
2023-01-18T04:01:10.730Z,24.27
2023-01-18T04:06:12.252Z,23.70
2023-01-18T04:11:13.697Z,24.30
2023-01-18T04:16:15.290Z,23.23
2023-01-18T04:21:16.761Z,24.58
2023-01-18T04:26:19.277Z,23.98
2023-01-18T04:31:20.889Z,23.00
2023-01-18T04:36:22.432Z,23.05
2023-01-18T04:41:24.131Z,23.85
2023-01-18T04:46:25.617Z,24.48
2023-01-18T04:51:27.385Z,24.38
2023-01-18T04:56:28.836Z,23.27
2023-01-18T05:01:32.531Z,23.95
2023-01-18T05:06:33.967Z,23.42
2023-01-18T05:11:35.391Z,24.55
2023-01-18T05:16:36.879Z,24.77
2023-01-18T05:21:38.335Z,25.92
2023-01-18T05:26:39.765Z,24.92
2023-01-18T05:31:41.703Z,25.25
2023-01-18T05:36:43.151Z,23.85
2023-01-18T05:41:44.643Z,23.00
2023-01-18T05:46:46.103Z,22.88
2023-01-18T05:51:47.629Z,21.65
2023-01-18T05:56:49.068Z,22.85
2023-01-18T06:01:50.535Z,22.30
2023-01-18T06:06:51.980Z,22.55
2023-01-18T06:11:53.996Z,23.13
2023-01-18T06:16:55.665Z,21.65
2023-01-18T06:21:57.088Z,21.35
2023-01-18T06:26:59.227Z,20.83
2023-01-18T06:32:00.738Z,19.05
2023-01-18T06:37:03.381Z,17.90
2023-01-18T06:42:05.313Z,17.77
2023-01-18T06:47:06.735Z,16.55
2023-01-18T06:52:08.162Z,16.92
2023-01-18T06:57:09.569Z,16.55
2023-01-18T07:02:14.168Z,16.42
2023-01-18T07:07:15.724Z,16.27
2023-01-18T07:12:17.153Z,19.50
2023-01-18T07:17:18.650Z,15.27
2023-01-18T07:22:20.152Z,15.85
2023-01-18T07:27:21.569Z,14.10
2023-01-18T07:32:23.039Z,13.20
2023-01-18T07:37:24.449Z,13.48
2023-01-18T07:42:25.859Z,15.02
2023-01-18T07:47:27.292Z,13.30
2023-01-18T07:52:28.857Z,13.38
2023-01-18T07:57:30.275Z,12.77
2023-01-18T08:02:31.709Z,11.02
2023-01-18T08:07:33.441Z,11.68
2023-01-18T08:12:34.933Z,11.73
2023-01-18T08:17:36.362Z,11.98
2023-01-18T08:22:37.868Z,11.52
2023-01-18T08:27:39.273Z,11.77
2023-01-18T08:32:43.749Z,12.18
2023-01-18T08:37:45.199Z,11.38
2023-01-18T08:42:46.848Z,12.23
2023-01-18T08:47:48.255Z,12.45
2023-01-18T08:52:52.467Z,13.30
2023-01-18T08:57:54.802Z,13.55
2023-01-18T09:02:57.590Z,14.60
2023-01-18T09:07:59.363Z,13.95
2023-01-18T09:13:01.273Z,14.20
2023-01-18T09:18:06.194Z,13.38
2023-01-18T09:23:09.349Z,14.38
2023-01-18T09:28:12.362Z,14.93
2023-01-18T09:33:13.840Z,14.75
2023-01-18T09:38:16.044Z,14.93
2023-01-18T09:43:25.838Z,14.48
2023-01-18T09:48:35.762Z,15.00
2023-01-18T09:53:49.061Z,15.10
2023-01-18T09:59:05.637Z,14.20
2023-01-18T10:04:20.619Z,15.32
2023-01-18T10:09:28.955Z,14.50
2023-01-18T10:14:47.930Z,15.65
2023-01-18T10:19:50.245Z,14.02
2023-01-18T10:25:05.138Z,15.07
2023-01-18T10:30:12.637Z,14.88
2023-01-18T10:35:24.676Z,15.10
2023-01-18T10:40:26.600Z,15.18
2023-01-18T10:45:30.462Z,14.93
2023-01-18T10:50:39.826Z,15.95
2023-01-18T11:00:53.560Z,16.70
2023-01-18T11:06:04.812Z,16.02
2023-01-18T11:11:12.199Z,17.42
2023-01-18T11:16:17.629Z,14.93
2023-01-18T11:21:19.279Z,15.43
2023-01-18T11:26:23.381Z,16.15
2023-01-18T11:31:46.253Z,18.80
2023-01-18T11:36:47.874Z,18.75
2023-01-18T11:41:49.824Z,18.27
2023-01-18T11:46:55.676Z,17.42
2023-01-18T11:52:05.194Z,18.33
2023-01-18T12:02:56.517Z,17.27
2023-01-18T12:08:31.840Z,16.45
2023-01-18T12:13:42.267Z,16.63
2023-01-18T12:19:08.607Z,39.17
2023-01-18T12:24:23.767Z,20.40
2023-01-18T12:30:03.660Z,17.77
2023-01-18T12:35:35.629Z,16.17
2023-01-18T12:40:42.967Z,15.00
2023-01-18T12:46:09.077Z,14.65
2023-01-18T12:51:17.330Z,18.90
2023-01-18T12:56:31.378Z,17.17
2023-01-18T13:01:42.732Z,24.65
2023-01-18T13:06:45.610Z,22.77
2023-01-18T13:11:48.698Z,22.63
2023-01-18T13:17:08.897Z,24.42
2023-01-18T13:22:59.435Z,23.15
2023-01-18T13:28:02.747Z,23.25
2023-01-18T13:33:13.776Z,22.63
2023-01-18T13:38:21.139Z,25.20
2023-01-18T13:43:35.615Z,32.47
2023-01-18T13:48:55.213Z,21.38
2023-01-18T13:53:56.721Z,21.33
2023-01-18T13:59:23.286Z,19.95
2023-01-18T14:04:30.140Z,17.30
2023-01-18T14:09:36.410Z,15.45
2023-01-18T14:14:59.384Z,13.38
2023-01-18T14:20:25.505Z,14.88
2023-01-18T14:26:02.521Z,15.15
2023-01-18T14:31:07.098Z,17.50
2023-01-18T14:36:20.879Z,20.02
2023-01-18T14:41:23.206Z,20.17
2023-01-18T14:46:27.070Z,21.23
2023-01-18T14:51:29.976Z,20.67
2023-01-18T14:56:34.838Z,20.25
2023-01-18T15:01:40.093Z,19.50
2023-01-18T15:06:45.775Z,18.20
2023-01-18T15:11:49.266Z,18.83
2023-01-18T15:16:53.514Z,17.80
2023-01-18T15:21:55.070Z,18.55
2023-01-18T15:27:01.249Z,20.38
2023-01-18T15:32:16.508Z,21.13
2023-01-18T15:37:27.167Z,22.00
2023-01-18T15:42:36.912Z,22.30
2023-01-18T15:47:38.525Z,22.63
2023-01-18T15:52:46.500Z,22.90
2023-01-18T15:58:01.310Z,22.95
2023-01-18T16:03:04.539Z,23.75
2023-01-18T16:08:16.918Z,24.45
2023-01-18T16:13:31.000Z,24.23
2023-01-18T16:18:32.599Z,22.77
2023-01-18T16:23:34.276Z,26.75
2023-01-18T16:28:35.732Z,23.55
2023-01-18T16:33:37.164Z,22.85
2023-01-18T16:38:38.604Z,23.33
2023-01-18T16:43:40.630Z,22.92
2023-01-18T16:48:42.118Z,23.70
2023-01-18T16:53:43.565Z,25.65
2023-01-18T16:58:45.040Z,27.40
2023-01-18T17:03:46.456Z,28.08
2023-01-18T17:08:49.323Z,30.17
2023-01-18T17:13:50.941Z,36.30
2023-01-18T17:18:52.533Z,32.08
2023-01-18T17:23:54.024Z,31.67
2023-01-18T17:28:55.455Z,30.88
2023-01-18T17:33:56.912Z,31.42
2023-01-18T17:38:58.435Z,28.17
2023-01-18T17:43:59.880Z,29.50
2023-01-18T17:49:02.701Z,28.77
2023-01-18T17:54:10.247Z,28.38
2023-01-18T17:59:15.444Z,30.40
2023-01-18T18:04:16.910Z,29.73
2023-01-18T18:09:18.380Z,28.17
2023-01-18T18:14:19.893Z,28.90
2023-01-18T18:19:21.354Z,29.45
2023-01-18T18:24:22.889Z,31.13
2023-01-18T18:29:24.323Z,30.80
2023-01-18T18:34:25.928Z,30.83
2023-01-18T18:39:27.345Z,35.92
2023-01-18T18:44:28.984Z,34.17
2023-01-18T18:49:30.415Z,33.28
2023-01-18T18:54:31.911Z,32.72
2023-01-18T18:59:33.395Z,34.15
2023-01-18T19:04:34.878Z,34.88
2023-01-18T19:09:36.373Z,37.05
2023-01-18T19:14:37.801Z,37.50
2023-01-18T19:19:39.257Z,35.28
2023-01-18T19:24:40.801Z,35.42
2023-01-18T19:29:42.231Z,35.30
2023-01-18T19:34:43.783Z,38.67
2023-01-18T19:39:45.907Z,39.50
2023-01-18T19:44:47.303Z,36.58
2023-01-18T19:49:48.846Z,37.35
2023-01-18T19:54:50.249Z,36.92
2023-01-18T19:59:51.793Z,38.85
2023-01-18T20:04:53.334Z,36.22
2023-01-18T20:09:54.863Z,38.40
2023-01-18T20:14:56.280Z,36.95
2023-01-18T20:19:57.685Z,35.72
2023-01-18T20:24:59.140Z,35.70
2023-01-18T20:30:00.621Z,34.55
2023-01-18T20:35:02.062Z,33.08
2023-01-18T20:40:03.732Z,32.25
2023-01-18T20:45:05.800Z,31.98
2023-01-18T20:50:07.584Z,37.38
2023-01-18T20:55:12.784Z,34.70
2023-01-18T21:00:14.698Z,32.67
2023-01-18T21:05:16.207Z,34.42
2023-01-18T21:10:17.625Z,31.38
2023-01-18T21:15:19.041Z,30.65
2023-01-18T21:20:20.465Z,29.02
2023-01-18T21:25:22.124Z,29.33
2023-01-18T21:30:23.702Z,27.80
2023-01-18T21:35:25.219Z,28.52
2023-01-18T21:40:26.633Z,28.80
2023-01-18T21:45:46.840Z,36.17
2023-01-18T21:51:06.940Z,30.25
2023-01-18T21:56:08.928Z,31.77
2023-01-18T22:01:16.912Z,50.58
2023-01-18T22:06:18.417Z,35.03
2023-01-18T22:11:19.927Z,39.58
2023-01-18T22:16:21.389Z,45.17
2023-01-18T22:21:25.362Z,35.28
2023-01-18T22:26:29.248Z,31.35
2023-01-18T22:31:30.702Z,31.45
2023-01-18T22:36:32.880Z,30.60
2023-01-18T22:41:34.382Z,29.27
2023-01-18T22:46:35.851Z,31.00
2023-01-18T22:51:37.467Z,30.42
2023-01-18T22:56:38.904Z,36.65
2023-01-18T23:01:40.350Z,32.22
2023-01-18T23:06:47.880Z,31.88
2023-01-18T23:11:49.526Z,32.17
2023-01-18T23:17:09.800Z,29.88
2023-01-18T23:22:11.326Z,38.05
2023-01-18T23:27:12.797Z,37.25
2023-01-18T23:32:14.205Z,34.47
2023-01-18T23:37:15.605Z,38.25
2023-01-18T23:42:35.700Z,33.20
2023-01-18T23:47:55.776Z,29.52
2023-01-18T23:53:18.842Z,27.52
2023-01-18T23:58:20.675Z,30.02
